createdAt,value
2023-03-12T00:01:41.736Z,99009.53
2023-03-12T00:04:08.339Z,99009.28
2023-03-12T00:06:34.941Z,99001.28
2023-03-12T00:09:02.064Z,99015.69
2023-03-12T00:11:29.202Z,99011.13
2023-03-12T00:13:57.457Z,99011.13
2023-03-12T00:16:24.887Z,99007.16
2023-03-12T00:18:53.950Z,99006.88
2023-03-12T00:21:21.926Z,99002.13
2023-03-12T00:23:49.426Z,99003.16
2023-03-12T00:26:17.023Z,98998.88
2023-03-12T00:28:43.818Z,99002.88
2023-03-12T00:31:20.231Z,99005.25
2023-03-12T00:33:49.416Z,99010.03
2023-03-12T00:36:18.044Z,99008.44
2023-03-12T00:38:44.678Z,99005.22
2023-03-12T00:41:11.458Z,98997.75
2023-03-12T00:43:38.566Z,98990.84
2023-03-12T00:46:05.221Z,98984.19
2023-03-12T00:48:31.973Z,98981.00
2023-03-12T00:50:58.606Z,98978.09
2023-03-12T00:53:25.347Z,98972.22
2023-03-12T00:55:51.876Z,98964.22
2023-03-12T00:58:18.527Z,98962.09
2023-03-12T01:00:45.263Z,98969.06
2023-03-12T01:03:11.872Z,98976.00
2023-03-12T01:05:40.854Z,98967.44
2023-03-12T01:08:08.687Z,98964.53
2023-03-12T01:10:36.382Z,98961.59
2023-03-12T01:13:03.543Z,98968.53
2023-03-12T01:15:30.214Z,98969.34
2023-03-12T01:17:56.748Z,98968.53
2023-03-12T01:20:23.689Z,98970.66
2023-03-12T01:22:51.426Z,98972.25
2023-03-12T01:25:18.791Z,98966.13
2023-03-12T01:27:45.307Z,98958.66
2023-03-12T01:30:12.335Z,98966.41
2023-03-12T01:32:38.867Z,98958.94
2023-03-12T01:35:06.561Z,98959.75
2023-03-12T01:37:33.807Z,98960.00
2023-03-12T01:40:01.032Z,98958.69
2023-03-12T01:42:27.696Z,98964.59
2023-03-12T01:44:58.917Z,98949.91
2023-03-12T01:47:26.289Z,98945.66
2023-03-12T01:49:55.822Z,98950.19
2023-03-12T01:52:27.562Z,98931.22
2023-03-12T01:55:05.395Z,98932.84
2023-03-12T01:57:38.323Z,98925.88
2023-03-12T02:00:14.670Z,98922.97
2023-03-12T02:02:44.255Z,98913.88
2023-03-12T02:05:19.536Z,98918.16
2023-03-12T02:07:47.123Z,98926.19
2023-03-12T02:10:13.738Z,98918.41
2023-03-12T02:12:40.388Z,98928.03
2023-03-12T02:15:07.865Z,98936.88
2023-03-12T02:17:36.265Z,98937.66
2023-03-12T02:20:25.773Z,98945.94
2023-03-12T02:23:05.763Z,98945.13
2023-03-12T02:25:39.272Z,98936.88
2023-03-12T02:28:09.288Z,98943.53
2023-03-12T02:30:36.676Z,98934.97
2023-03-12T02:33:07.557Z,98931.53
2023-03-12T02:35:34.542Z,98937.66
2023-03-12T02:38:01.152Z,98932.84
2023-03-12T02:40:30.676Z,98932.31
2023-03-12T02:42:57.544Z,98934.72
2023-03-12T02:45:26.067Z,98932.06
2023-03-12T02:47:52.721Z,98926.13
2023-03-12T02:50:19.257Z,98934.97
2023-03-12T02:52:45.752Z,98930.94
2023-03-12T02:55:12.504Z,98925.84
2023-03-12T02:57:39.320Z,98934.13
2023-03-12T03:00:11.982Z,98924.75
2023-03-12T03:02:39.842Z,98915.66
2023-03-12T03:05:07.098Z,98913.50
2023-03-12T03:07:33.904Z,98915.09
2023-03-12T03:10:04.139Z,98916.38
2023-03-12T03:12:33.969Z,98913.69
2023-03-12T03:15:00.821Z,98922.47
2023-03-12T03:17:27.616Z,98920.88
2023-03-12T03:19:54.529Z,98919.03
2023-03-12T03:22:22.205Z,98909.41
2023-03-12T03:24:49.058Z,98903.78
2023-03-12T03:27:15.649Z,98907.28
2023-03-12T03:29:42.159Z,98910.47
2023-03-12T03:32:08.711Z,98907.22
2023-03-12T03:34:35.346Z,98914.97
2023-03-12T03:37:02.070Z,98915.50
2023-03-12T03:39:29.641Z,98904.28
2023-03-12T03:41:56.439Z,98895.13
2023-03-12T03:44:23.194Z,98894.28
2023-03-12T03:46:50.115Z,98894.00
2023-03-12T03:49:17.036Z,98892.41
2023-03-12T03:51:43.760Z,98898.81
2023-03-12T03:54:10.753Z,98890.81
2023-03-12T03:56:37.367Z,98880.66
2023-03-12T03:59:04.385Z,98876.09
2023-03-12T04:01:31.507Z,98886.47
2023-03-12T04:03:59.451Z,98882.75
2023-03-12T04:06:26.067Z,98895.03
2023-03-12T04:08:52.609Z,98892.34
2023-03-12T04:11:21.392Z,98881.94
2023-03-12T04:13:48.873Z,98892.63
2023-03-12T04:16:17.157Z,98891.56
2023-03-12T04:18:44.707Z,98897.13
2023-03-12T04:21:13.256Z,98902.47
2023-03-12T04:23:40.427Z,98894.22
2023-03-12T04:26:07.761Z,98889.69
2023-03-12T04:28:35.235Z,98891.88
2023-03-12T04:31:04.349Z,98884.41
2023-03-12T04:33:34.205Z,98883.34
2023-03-12T04:36:01.227Z,98881.22
2023-03-12T04:38:28.050Z,98879.09
2023-03-12T04:41:08.662Z,98876.16
2023-03-12T04:43:35.748Z,98874.84
2023-03-12T04:46:02.906Z,98870.84
2023-03-12T04:48:29.882Z,98874.63
2023-03-12T04:50:56.425Z,98869.81
2023-03-12T04:53:24.222Z,98874.91
2023-03-12T04:55:51.288Z,98869.03
2023-03-12T04:58:18.778Z,98870.66
2023-03-12T05:00:45.567Z,98874.38
2023-03-12T05:03:12.141Z,98880.25
2023-03-12T05:05:38.676Z,98884.47
2023-03-12T05:08:05.771Z,98885.00
2023-03-12T05:10:32.776Z,98888.47
2023-03-12T05:12:59.621Z,98881.22
2023-03-12T05:15:26.571Z,98888.72
2023-03-12T05:17:54.769Z,98895.41
2023-03-12T05:20:21.642Z,98890.88
2023-03-12T05:22:48.234Z,98893.03
2023-03-12T05:25:14.921Z,98888.50
2023-03-12T05:27:41.477Z,98898.94
2023-03-12T05:30:09.808Z,98896.81
2023-03-12T05:32:36.543Z,98894.13
2023-03-12T05:35:03.588Z,98888.78
2023-03-12T05:37:30.136Z,98887.97
2023-03-12T05:39:56.819Z,98890.41
2023-03-12T05:42:25.133Z,98877.59
2023-03-12T05:44:52.367Z,98881.34
2023-03-12T05:47:19.303Z,98887.72
2023-03-12T05:49:46.142Z,98887.44
2023-03-12T05:52:12.688Z,98885.59
2023-03-12T05:54:39.404Z,98887.84
2023-03-12T05:57:06.042Z,98884.34
2023-03-12T05:59:32.752Z,98885.91
2023-03-12T06:01:59.376Z,98886.19
2023-03-12T06:04:26.190Z,98885.31
2023-03-12T06:06:52.908Z,98885.75
2023-03-12T06:09:19.549Z,98879.91
2023-03-12T06:11:46.049Z,98887.69
2023-03-12T06:14:13.128Z,98890.25
2023-03-12T06:16:39.903Z,98898.28
2023-03-12T06:19:07.673Z,98900.31
2023-03-12T06:21:35.907Z,98904.94
2023-03-12T06:24:03.114Z,98905.50
2023-03-12T06:26:29.945Z,98908.44
2023-03-12T06:28:56.764Z,98910.84
2023-03-12T06:31:24.102Z,98916.44
2023-03-12T06:33:51.594Z,98910.28
2023-03-12T06:36:18.186Z,98914.31
2023-03-12T06:38:44.997Z,98916.41
2023-03-12T06:41:14.621Z,98922.81
2023-03-12T06:43:42.176Z,98924.44
2023-03-12T06:46:13.494Z,98922.03
2023-03-12T06:48:41.562Z,98926.56
2023-03-12T06:51:13.356Z,98926.56
2023-03-12T06:53:42.218Z,98921.75
2023-03-12T06:56:09.956Z,98920.16
2023-03-12T06:58:36.606Z,98917.47
2023-03-12T07:01:03.388Z,98927.63
2023-03-12T07:03:29.881Z,98925.50
2023-03-12T07:05:57.861Z,98936.44
2023-03-12T07:08:25.756Z,98930.81
2023-03-12T07:10:52.404Z,98934.53
2023-03-12T07:13:18.998Z,98936.16
2023-03-12T07:15:46.569Z,98938.31
2023-03-12T07:18:13.913Z,98942.59
2023-03-12T07:20:43.298Z,98942.59
2023-03-12T07:23:11.108Z,98948.25
2023-03-12T07:25:39.456Z,98955.97
2023-03-12T07:28:06.987Z,98955.97
2023-03-12T07:30:34.414Z,98959.19
2023-03-12T07:33:06.211Z,98949.31
2023-03-12T07:35:33.011Z,98954.41
2023-03-12T07:38:01.560Z,98950.69
2023-03-12T07:40:28.383Z,98951.78
2023-03-12T07:42:54.907Z,98957.91
2023-03-12T07:45:22.146Z,98952.59
2023-03-12T07:47:49.693Z,98964.63
2023-03-12T07:50:17.639Z,98946.97
2023-03-12T07:52:45.175Z,98957.13
2023-03-12T07:55:12.067Z,98952.31
2023-03-12T07:57:39.058Z,98956.34
2023-03-12T08:00:10.490Z,98965.72
2023-03-12T08:02:37.314Z,98965.97
2023-03-12T08:05:04.407Z,98976.16
2023-03-12T08:07:33.028Z,98963.06
2023-03-12T08:10:00.212Z,98967.34
2023-03-12T08:12:27.752Z,98963.03
2023-03-12T08:14:54.723Z,98965.19
2023-03-12T08:17:22.957Z,98963.59
2023-03-12T08:19:49.606Z,98965.44
2023-03-12T08:22:16.209Z,98974.03
2023-03-12T08:24:43.198Z,98974.28
2023-03-12T08:27:12.117Z,98977.75
2023-03-12T08:29:39.703Z,98982.28
2023-03-12T08:32:07.449Z,98984.94
2023-03-12T08:34:34.907Z,98980.66
2023-03-12T08:37:02.895Z,98984.34
2023-03-12T08:39:30.177Z,98991.31
2023-03-12T08:41:56.737Z,98991.84
2023-03-12T08:44:24.599Z,98995.00
2023-03-12T08:46:52.212Z,98993.38
2023-03-12T08:49:19.665Z,98992.31
2023-03-12T08:51:46.361Z,98986.66
2023-03-12T08:54:13.136Z,98990.34
2023-03-12T08:56:43.193Z,99000.22
2023-03-12T08:59:11.628Z,99004.44
2023-03-12T09:01:38.426Z,99017.69
2023-03-12T09:04:05.654Z,99011.94
2023-03-12T09:06:34.245Z,99022.69
2023-03-12T09:09:04.963Z,99026.44
2023-03-12T09:11:36.529Z,99016.47
2023-03-12T09:14:39.529Z,99023.16
2023-03-12T09:16:50.261Z,99028.19
2023-03-12T09:19:17.122Z,99037.28
2023-03-12T09:21:43.696Z,99030.53
2023-03-12T09:24:11.520Z,99036.72
2023-03-12T09:26:38.124Z,99035.84
2023-03-12T09:29:04.747Z,99029.53
2023-03-12T09:31:31.781Z,99031.59
2023-03-12T09:33:58.356Z,99026.81
2023-03-12T09:36:24.879Z,99031.00
2023-03-12T09:38:51.409Z,99039.41
2023-03-12T09:41:25.233Z,99041.44
2023-03-12T09:44:07.932Z,99044.81
2023-03-12T09:46:44.582Z,99035.81
2023-03-12T09:49:38.061Z,99042.13
2023-03-12T09:52:23.420Z,99043.22
2023-03-12T09:55:15.866Z,99044.31
2023-03-12T09:57:43.507Z,99054.19
2023-03-12T10:00:16.260Z,99043.59
2023-03-12T10:03:04.535Z,99034.69
2023-03-12T10:05:55.870Z,99035.91
2023-03-12T10:08:36.678Z,99030.47
2023-03-12T10:11:21.299Z,99027.38
2023-03-12T10:14:10.279Z,99029.88
2023-03-12T10:17:11.017Z,99035.13
2023-03-12T10:19:59.861Z,99039.94
2023-03-12T10:22:53.236Z,99047.56
2023-03-12T10:25:45.448Z,99050.41
2023-03-12T10:28:32.248Z,99052.00
2023-03-12T10:31:05.294Z,99041.03
2023-03-12T10:33:44.758Z,99045.53
2023-03-12T10:36:25.038Z,99049.22
2023-03-12T10:38:51.710Z,99051.34
2023-03-12T10:41:22.008Z,99052.19
2023-03-12T10:43:48.608Z,99054.66
2023-03-12T10:46:15.166Z,99042.81
2023-03-12T10:48:43.231Z,99042.44
2023-03-12T10:51:12.535Z,99042.66
2023-03-12T10:53:48.249Z,99036.28
2023-03-12T10:56:20.259Z,99038.69
2023-03-12T10:58:51.222Z,99038.94
2023-03-12T11:01:22.008Z,99047.06
2023-03-12T11:03:51.093Z,99044.63
2023-03-12T11:06:27.073Z,99050.38
2023-03-12T11:09:16.669Z,99042.56
2023-03-12T11:11:47.537Z,99043.97
2023-03-12T11:29:27.247Z,99061.56
2023-03-12T11:32:18.166Z,99057.38
2023-03-12T11:34:49.682Z,99046.78
2023-03-12T11:37:29.118Z,99048.19
2023-03-12T11:39:55.612Z,99041.06
2023-03-12T11:42:59.359Z,99044.28
2023-03-12T11:46:03.609Z,99040.34
2023-03-12T11:48:57.549Z,99037.00
2023-03-12T11:51:52.276Z,99051.81
2023-03-12T11:54:37.328Z,99057.09
2023-03-12T11:57:42.428Z,99043.50
2023-03-12T12:00:21.829Z,99044.44
2023-03-12T12:03:25.355Z,99047.97
2023-03-12T12:05:51.851Z,99037.00
2023-03-12T12:08:39.840Z,99038.91
2023-03-12T12:11:27.005Z,99025.97
2023-03-12T12:14:36.828Z,99031.41
2023-03-12T12:17:23.850Z,99010.84
2023-03-12T12:20:00.944Z,99007.50
2023-03-12T12:23:06.338Z,99000.50
2023-03-12T12:25:57.923Z,99008.00
2023-03-12T12:28:56.012Z,99012.78
2023-03-12T12:31:25.580Z,98988.53
2023-03-12T12:34:07.752Z,99002.69
2023-03-12T12:36:35.155Z,99000.78
2023-03-12T12:39:09.961Z,98997.63
2023-03-12T12:41:42.697Z,98998.72
2023-03-12T12:44:16.723Z,98991.56
2023-03-12T12:46:49.402Z,98983.41
2023-03-12T12:49:38.026Z,98991.84
2023-03-12T12:52:08.067Z,98994.22
2023-03-12T12:54:43.670Z,99000.44
2023-03-12T12:57:16.109Z,98983.97
2023-03-12T12:59:52.214Z,98992.00
2023-03-12T13:02:26.493Z,98979.69
2023-03-12T13:04:57.210Z,98992.41
2023-03-12T13:07:25.793Z,98987.00
2023-03-12T13:09:56.214Z,98977.78
2023-03-12T13:12:43.540Z,98986.78
2023-03-12T13:15:28.152Z,98981.81
2023-03-12T13:17:54.655Z,98992.97
2023-03-12T13:20:24.509Z,98983.22
2023-03-12T13:23:20.233Z,98993.13
2023-03-12T13:26:08.680Z,99006.53
2023-03-12T13:29:06.132Z,99001.91
2023-03-12T13:31:39.769Z,99007.31
2023-03-12T13:34:06.335Z,99006.06
2023-03-12T13:36:37.561Z,99006.06
2023-03-12T13:39:07.358Z,98999.34
2023-03-12T13:41:38.028Z,99004.59
2023-03-12T13:44:25.239Z,99000.94
2023-03-12T13:47:02.309Z,98995.53
2023-03-12T13:49:42.387Z,98977.50
2023-03-12T13:52:27.087Z,98991.84
2023-03-12T13:55:22.268Z,98996.31
2023-03-12T13:57:58.687Z,98995.38
2023-03-12T14:00:36.257Z,98995.03
2023-03-12T14:03:18.248Z,99007.34
2023-03-12T14:05:52.431Z,99010.84
2023-03-12T14:08:31.038Z,99014.84
2023-03-12T14:11:22.314Z,98998.09
2023-03-12T14:13:48.837Z,98997.59
2023-03-12T14:16:30.838Z,98992.50
2023-03-12T14:18:57.562Z,98996.31
2023-03-12T14:21:27.747Z,98979.72
2023-03-12T14:23:57.611Z,98982.75
2023-03-12T14:26:27.977Z,98987.88
2023-03-12T14:29:02.660Z,98983.41
2023-03-12T14:31:31.584Z,98983.09
2023-03-12T14:34:20.695Z,98982.59
2023-03-12T14:37:18.170Z,98976.84
2023-03-12T14:39:57.630Z,98961.53
2023-03-12T14:42:33.638Z,98979.69
2023-03-12T14:45:04.184Z,98969.09
2023-03-12T14:47:30.728Z,98980.25
2023-03-12T14:49:58.592Z,98973.66
2023-03-12T14:52:29.664Z,98985.47
2023-03-12T14:55:08.350Z,98982.59
2023-03-12T14:57:34.995Z,98987.09
2023-03-12T15:00:01.720Z,98971.59
2023-03-12T15:02:31.008Z,98956.03
2023-03-12T15:05:00.301Z,98992.66
2023-03-12T15:07:34.381Z,98976.47
2023-03-12T15:10:03.146Z,98968.78
2023-03-12T15:12:34.354Z,98977.25
2023-03-12T15:15:09.548Z,98966.31
2023-03-12T15:17:36.433Z,98969.56
2023-03-12T15:20:09.518Z,98976.94
2023-03-12T15:22:36.789Z,98974.91
2023-03-12T15:25:22.221Z,98974.47
2023-03-12T15:27:49.297Z,98967.69
2023-03-12T15:30:25.690Z,98955.53
2023-03-12T15:33:09.162Z,98951.34
2023-03-12T15:35:58.453Z,98950.38
2023-03-12T15:38:25.801Z,98937.28
2023-03-12T15:40:56.152Z,98936.47
2023-03-12T15:43:25.777Z,98933.63
2023-03-12T15:46:06.807Z,98933.97
2023-03-12T15:48:39.504Z,98938.13
2023-03-12T15:51:29.278Z,98941.19
2023-03-12T15:54:22.970Z,98941.03
2023-03-12T15:56:49.576Z,98937.84
2023-03-12T15:59:16.075Z,98939.63
2023-03-12T16:01:49.915Z,98945.56
2023-03-12T16:04:17.410Z,98950.84
2023-03-12T16:06:48.253Z,98941.59
2023-03-12T16:09:20.101Z,98942.53
2023-03-12T16:11:47.342Z,98935.31
2023-03-12T16:14:18.766Z,98935.78
2023-03-12T16:16:46.631Z,98931.84
2023-03-12T16:19:15.453Z,98931.97
2023-03-12T16:21:44.108Z,98931.50
2023-03-12T16:24:11.508Z,98934.22
2023-03-12T16:26:52.050Z,98953.38
2023-03-12T16:29:20.314Z,98959.47
2023-03-12T16:31:54.275Z,98954.84
2023-03-12T16:34:20.873Z,98959.78
2023-03-12T16:36:47.403Z,98961.53
2023-03-12T16:39:14.081Z,98956.28
2023-03-12T16:41:40.711Z,98964.88
2023-03-12T16:44:13.734Z,98956.75
2023-03-12T16:46:40.338Z,98958.16
2023-03-12T16:49:07.048Z,98960.41
2023-03-12T16:51:33.611Z,98954.50
2023-03-12T16:54:09.708Z,98956.75
2023-03-12T16:56:41.347Z,98954.84
2023-03-12T16:59:16.070Z,98947.97
2023-03-12T17:01:42.733Z,98950.38
2023-03-12T17:04:10.920Z,98948.78
2023-03-12T17:06:40.107Z,98954.38
2023-03-12T17:09:08.453Z,98956.63
2023-03-12T17:11:37.799Z,98957.91
2023-03-12T17:14:16.400Z,98962.66
2023-03-12T17:16:42.948Z,98946.88
2023-03-12T17:19:09.481Z,98958.69
2023-03-12T17:21:37.538Z,98948.59
2023-03-12T17:24:04.410Z,98952.09
2023-03-12T17:26:31.135Z,98967.22
2023-03-12T17:28:57.696Z,98972.13
2023-03-12T17:31:24.777Z,98976.59
2023-03-12T17:33:51.429Z,98970.78
2023-03-12T17:36:17.977Z,98970.94
2023-03-12T17:38:44.614Z,98975.84
2023-03-12T17:41:25.452Z,98984.13
2023-03-12T17:43:53.612Z,98971.53
2023-03-12T17:46:20.310Z,98982.19
2023-03-12T17:48:46.873Z,98992.03
2023-03-12T17:51:13.497Z,98985.66
2023-03-12T17:53:41.823Z,98983.88
2023-03-12T17:56:08.708Z,98996.59
2023-03-12T17:58:35.320Z,99003.91
2023-03-12T18:01:01.860Z,99000.72
2023-03-12T18:03:28.509Z,99009.16
2023-03-12T18:05:55.332Z,98992.75
2023-03-12T18:08:21.970Z,99009.31
2023-03-12T18:10:49.165Z,99008.81
2023-03-12T18:13:15.811Z,99007.81
2023-03-12T18:15:42.417Z,99016.56
2023-03-12T18:18:09.032Z,99016.41
2023-03-12T18:20:39.713Z,99013.19
2023-03-12T18:23:06.593Z,99010.47
2023-03-12T18:25:33.166Z,99022.09
2023-03-12T18:27:59.702Z,99016.69
2023-03-12T18:30:28.265Z,99015.88
2023-03-12T18:32:55.039Z,99016.69
2023-03-12T18:35:22.736Z,99011.91
2023-03-12T18:37:51.899Z,99011.41
2023-03-12T18:40:18.517Z,99020.16
2023-03-12T18:42:45.347Z,99014.25
2023-03-12T18:45:12.250Z,99009.44
2023-03-12T18:47:39.619Z,99012.13
2023-03-12T18:50:10.159Z,99003.53
2023-03-12T18:52:36.856Z,99005.75
2023-03-12T18:55:04.450Z,99007.97
2023-03-12T18:57:31.370Z,99007.97
2023-03-12T18:59:59.356Z,99011.78
2023-03-12T19:02:25.945Z,99013.69
2023-03-12T19:04:54.845Z,99005.59
2023-03-12T19:07:22.709Z,99014.81
2023-03-12T19:09:49.380Z,99007.59
2023-03-12T19:12:16.061Z,98993.59
2023-03-12T19:14:42.548Z,98989.78
2023-03-12T19:17:09.030Z,98984.38
2023-03-12T19:19:35.762Z,98973.56
2023-03-12T19:22:02.380Z,98975.78
2023-03-12T19:24:28.927Z,98974.19
2023-03-12T19:26:55.878Z,98977.19
2023-03-12T19:29:22.498Z,98974.78
2023-03-12T19:31:49.181Z,98968.59
2023-03-12T19:34:17.286Z,98971.00
2023-03-12T19:36:44.038Z,98975.78
2023-03-12T19:39:20.578Z,98974.66
2023-03-12T19:41:47.911Z,98979.59
2023-03-12T19:44:14.506Z,98988.47
2023-03-12T19:46:43.065Z,98985.59
2023-03-12T19:49:09.787Z,98986.81
2023-03-12T19:51:36.634Z,98990.16
2023-03-12T19:54:03.199Z,98979.75
2023-03-12T19:56:29.822Z,98989.38
2023-03-12T19:58:56.388Z,98986.03
2023-03-12T20:01:23.077Z,98980.13
2023-03-12T20:03:49.704Z,98976.13
2023-03-12T20:06:16.415Z,98958.31
2023-03-12T20:08:44.572Z,98964.94
2023-03-12T20:11:11.434Z,98962.84
2023-03-12T20:13:40.605Z,98962.44
2023-03-12T20:16:07.900Z,98949.53
2023-03-12T20:18:34.646Z,98940.94
2023-03-12T20:21:01.251Z,98941.56
2023-03-12T20:23:27.806Z,98933.75
2023-03-12T20:25:54.378Z,98936.75
2023-03-12T20:28:21.090Z,98925.97
2023-03-12T20:30:48.569Z,98927.06
2023-03-12T20:33:15.272Z,98919.44
2023-03-12T20:35:41.914Z,98919.94
2023-03-12T20:38:08.631Z,98916.63
2023-03-12T20:40:35.247Z,98912.03
2023-03-12T20:43:05.086Z,98912.31
2023-03-12T20:45:32.752Z,98897.34
2023-03-12T20:47:59.806Z,98905.66
2023-03-12T20:50:27.726Z,98897.19
2023-03-12T20:52:54.536Z,98890.50
2023-03-12T20:55:21.124Z,98889.72
2023-03-12T20:57:47.823Z,98891.38
2023-03-12T21:00:14.584Z,98897.75
2023-03-12T21:02:41.195Z,98887.94
2023-03-12T21:05:10.353Z,98896.25
2023-03-12T21:07:36.984Z,98875.00
2023-03-12T21:10:03.944Z,98895.88
2023-03-12T21:12:30.576Z,98893.88
2023-03-12T21:15:06.016Z,98899.47
2023-03-12T21:17:34.293Z,98884.91
2023-03-12T21:20:01.779Z,98883.00
2023-03-12T21:22:30.500Z,98875.38
2023-03-12T21:24:57.654Z,98864.56
2023-03-12T21:27:24.879Z,98863.97
2023-03-12T21:29:52.818Z,98869.88
2023-03-12T21:32:20.566Z,98863.84
2023-03-12T21:34:47.435Z,98869.91
2023-03-12T21:37:14.209Z,98871.69
2023-03-12T21:39:40.738Z,98868.69
2023-03-12T21:42:07.429Z,98869.78
2023-03-12T21:44:38.194Z,98877.91
2023-03-12T21:47:05.513Z,98869.47
2023-03-12T21:49:35.845Z,98862.47
2023-03-12T21:52:03.648Z,98854.34
2023-03-12T21:54:34.641Z,98864.38
2023-03-12T21:57:02.919Z,98851.16
2023-03-12T21:59:30.889Z,98848.47
2023-03-12T22:01:58.316Z,98853.88
2023-03-12T22:04:25.225Z,98854.19
2023-03-12T22:06:51.989Z,98854.97
2023-03-12T22:09:18.812Z,98844.78
2023-03-12T22:11:45.354Z,98839.06
2023-03-12T22:14:11.940Z,98836.66
2023-03-12T22:16:38.512Z,98830.44
2023-03-12T22:19:05.076Z,98836.66
2023-03-12T22:21:31.652Z,98827.59
2023-03-12T22:24:00.636Z,98828.69
2023-03-12T22:26:27.711Z,98825.66
2023-03-12T22:28:57.530Z,98818.38
2023-03-12T22:31:26.625Z,98814.06
2023-03-12T22:33:53.200Z,98809.78
2023-03-12T22:36:21.401Z,98808.19
2023-03-12T22:38:47.919Z,98802.78
2023-03-12T22:41:25.769Z,98800.69
2023-03-12T22:43:54.639Z,98806.09
2023-03-12T22:46:23.457Z,98802.59
2023-03-12T22:48:58.691Z,98795.78
2023-03-12T22:51:26.634Z,98787.03
2023-03-12T22:53:53.314Z,98784.81
2023-03-12T22:56:19.958Z,98784.34
2023-03-12T22:58:47.241Z,98775.59
2023-03-12T23:01:16.228Z,98770.19
2023-03-12T23:03:44.887Z,98763.19
2023-03-12T23:06:30.167Z,98775.59
2023-03-12T23:08:57.112Z,98755.56
2023-03-12T23:11:25.586Z,98753.34
2023-03-12T23:13:53.595Z,98757.66
2023-03-12T23:16:23.346Z,98750.84
2023-03-12T23:18:50.875Z,98752.09
2023-03-12T23:21:22.959Z,98743.69
2023-03-12T23:23:50.158Z,98743.50
2023-03-12T23:26:26.503Z,98738.47
2023-03-12T23:28:57.837Z,98734.63
2023-03-12T23:31:27.140Z,98732.91
2023-03-12T23:33:54.609Z,98727.16
2023-03-12T23:36:23.350Z,98719.22
2023-03-12T23:38:50.268Z,98719.41
2023-03-12T23:41:26.036Z,98712.25
2023-03-12T23:43:52.787Z,98696.03
2023-03-12T23:46:19.812Z,98699.84
2023-03-12T23:48:46.984Z,98702.22
2023-03-12T23:51:15.252Z,98706.03
2023-03-12T23:53:44.156Z,98709.84
2023-03-12T23:56:17.122Z,98692.03
2023-03-12T23:58:44.437Z,98682.31
